createdAt,value
2018-06-05T00:00:01.949Z,22.6
2018-06-05T00:01:04.292Z,22.5
2018-06-05T00:02:05.673Z,22.5
2018-06-05T00:03:11.712Z,22.5
2018-06-05T00:04:14.627Z,22.5
2018-06-05T00:05:18.743Z,22.5
2018-06-05T00:06:21.329Z,22.5
2018-06-05T00:07:23.102Z,22.5
2018-06-05T00:08:37.724Z,22.4
2018-06-05T00:09:41.442Z,22.4
2018-06-05T00:10:45.239Z,22.5
2018-06-05T00:11:53.282Z,22.5
2018-06-05T00:12:59.132Z,22.5
2018-06-05T00:14:04.260Z,22.5
2018-06-05T00:15:06.666Z,22.4
2018-06-05T00:16:07.957Z,22.4
2018-06-05T00:17:13.118Z,22.4
2018-06-05T00:18:17.239Z,22.5
2018-06-05T00:19:18.793Z,22.4
2018-06-05T00:20:29.941Z,22.4
2018-06-05T00:21:35.659Z,22.5
2018-06-05T00:22:36.973Z,22.4
2018-06-05T00:23:38.338Z,22.4
2018-06-05T00:24:39.635Z,22.3
2018-06-05T00:25:40.946Z,22.4
2018-06-05T00:26:42.292Z,22.4
2018-06-05T00:27:43.696Z,22.4
2018-06-05T00:28:45.091Z,22.4
2018-06-05T00:29:46.395Z,22.4
2018-06-05T00:30:47.750Z,22.4
2018-06-05T00:31:50.295Z,22.4
2018-06-05T00:32:51.656Z,22.3
2018-06-05T00:33:55.413Z,22.3
2018-06-05T00:34:56.742Z,22.3
2018-06-05T00:36:05.273Z,22.3
2018-06-05T00:37:06.621Z,22.3
2018-06-05T00:38:07.938Z,22.3
2018-06-05T00:39:12.480Z,22.3
2018-06-05T00:40:13.811Z,22.3
2018-06-05T00:41:21.537Z,22.2
2018-06-05T00:42:22.856Z,22.2
2018-06-05T00:43:24.317Z,22.3
2018-06-05T00:44:25.829Z,22.3
2018-06-05T00:45:27.144Z,22.2
2018-06-05T00:46:28.696Z,22.2
2018-06-05T00:47:30.022Z,22.2
2018-06-05T00:48:33.084Z,22.2
2018-06-05T00:49:34.660Z,22.2
2018-06-05T00:50:37.620Z,22.2
2018-06-05T00:51:38.915Z,22.2
2018-06-05T00:52:40.213Z,22.2
2018-06-05T00:53:42.119Z,22.2
2018-06-05T00:54:46.519Z,22.2
2018-06-05T00:55:48.168Z,22.1
2018-06-05T00:56:49.476Z,22.1
2018-06-05T00:57:53.482Z,22.1
2018-06-05T00:58:57.160Z,22.1
2018-06-05T00:59:58.489Z,22.1
2018-06-05T01:00:59.785Z,22.1
2018-06-05T01:02:01.116Z,22.1
2018-06-05T01:03:05.629Z,22.1
2018-06-05T01:04:06.932Z,22.1
2018-06-05T01:05:10.718Z,22
2018-06-05T01:06:12.046Z,22.1
2018-06-05T01:07:13.399Z,22.1
2018-06-05T01:08:14.710Z,22
2018-06-05T01:09:17.653Z,22
2018-06-05T01:10:21.371Z,22
2018-06-05T01:11:28.724Z,22
2018-06-05T01:12:31.610Z,22
2018-06-05T01:13:35.508Z,22
2018-06-05T01:14:37.529Z,22
2018-06-05T01:15:41.319Z,22
2018-06-05T01:16:42.850Z,22
2018-06-05T01:17:46.568Z,22
2018-06-05T01:18:47.881Z,22
2018-06-05T01:19:49.220Z,21.9
2018-06-05T01:20:50.637Z,22
2018-06-05T01:21:51.966Z,22
2018-06-05T01:22:53.288Z,22
2018-06-05T01:23:54.949Z,22
2018-06-05T01:24:56.337Z,21.9
2018-06-05T01:25:57.944Z,21.9
2018-06-05T01:26:59.249Z,21.9
2018-06-05T01:28:00.586Z,21.9
2018-06-05T01:29:02.021Z,21.9
2018-06-05T01:30:03.352Z,21.8
2018-06-05T01:31:04.743Z,21.8
2018-06-05T01:32:06.115Z,21.9
2018-06-05T01:33:09.116Z,21.8
2018-06-05T01:34:10.503Z,21.7
2018-06-05T01:35:11.998Z,21.8
2018-06-05T01:36:13.376Z,21.8
2018-06-05T01:37:14.991Z,21.9
2018-06-05T01:38:16.326Z,21.8
2018-06-05T01:39:17.680Z,21.7
2018-06-05T01:40:18.998Z,21.8
2018-06-05T01:41:20.359Z,21.8
2018-06-05T01:42:21.781Z,21.8
2018-06-05T01:43:24.109Z,21.8
2018-06-05T01:44:25.455Z,21.8
2018-06-05T01:45:26.737Z,21.8
2018-06-05T01:46:28.084Z,21.8
2018-06-05T01:47:32.277Z,21.8
2018-06-05T01:48:33.608Z,21.8
2018-06-05T01:49:34.909Z,21.8
2018-06-05T01:50:36.199Z,21.7
2018-06-05T01:51:37.833Z,21.7
2018-06-05T01:52:39.335Z,21.7
2018-06-05T01:53:40.651Z,21.7
2018-06-05T01:54:41.953Z,21.7
2018-06-05T01:55:43.320Z,21.7
2018-06-05T01:56:44.906Z,21.7
2018-06-05T01:57:46.251Z,21.7
2018-06-05T01:58:47.543Z,21.7
2018-06-05T01:59:48.861Z,21.7
2018-06-05T02:00:50.193Z,21.7
2018-06-05T02:01:51.674Z,21.7
2018-06-05T02:02:53.022Z,21.7
2018-06-05T02:03:54.329Z,21.7
2018-06-05T02:04:55.942Z,21.7
2018-06-05T02:05:57.327Z,21.5
2018-06-05T02:06:58.753Z,21.7
2018-06-05T02:08:00.047Z,21.7
2018-06-05T02:09:01.618Z,21.6
2018-06-05T02:10:03.100Z,21.6
2018-06-05T02:11:04.438Z,21.7
2018-06-05T02:12:06.014Z,21.7
2018-06-05T02:13:07.347Z,21.7
2018-06-05T02:14:08.681Z,21.6
2018-06-05T02:15:09.992Z,21.6
2018-06-05T02:16:11.326Z,21.6
2018-06-05T02:17:12.705Z,21.6
2018-06-05T02:18:14.027Z,21.7
2018-06-05T02:19:15.385Z,21.6
2018-06-05T02:20:16.704Z,21.6
2018-06-05T02:21:18.021Z,21.6
2018-06-05T02:22:19.596Z,21.6
2018-06-05T02:23:20.914Z,21.6
2018-06-05T02:24:22.297Z,21.6
2018-06-05T02:25:23.608Z,21.6
2018-06-05T02:26:27.676Z,21.6
2018-06-05T02:27:29.049Z,21.6
2018-06-05T02:28:30.389Z,21.6
2018-06-05T02:29:41.914Z,21.6
2018-06-05T02:30:43.402Z,21.6
2018-06-05T02:31:44.729Z,21.6
2018-06-05T02:32:46.081Z,21.5
2018-06-05T02:33:48.751Z,21.6
2018-06-05T02:34:52.594Z,21.6
2018-06-05T02:35:54.110Z,21.6
2018-06-05T02:36:55.496Z,21.6
2018-06-05T02:37:57.032Z,21.6
2018-06-05T02:38:58.454Z,21.6
2018-06-05T02:39:59.794Z,21.6
2018-06-05T02:41:01.133Z,21.5
2018-06-05T02:42:02.490Z,21.6
2018-06-05T02:43:03.841Z,21.5
2018-06-05T02:44:05.172Z,21.5
2018-06-05T02:45:06.489Z,21.5
2018-06-05T02:46:07.800Z,21.5
2018-06-05T02:47:09.407Z,21.4
2018-06-05T02:48:11.063Z,21.5
2018-06-05T02:49:12.647Z,21.5
2018-06-05T02:50:13.992Z,21.5
2018-06-05T02:51:15.402Z,21.4
2018-06-05T02:52:16.839Z,21.4
2018-06-05T02:53:18.227Z,21.5
2018-06-05T02:54:19.550Z,21.4
2018-06-05T02:55:21.086Z,21.5
2018-06-05T02:56:22.471Z,21.5
2018-06-05T02:57:23.785Z,21.5
2018-06-05T02:58:27.272Z,21.5
2018-06-05T02:59:28.609Z,21.4
2018-06-05T03:00:29.911Z,21.4
2018-06-05T03:01:31.221Z,21.3
2018-06-05T03:02:32.532Z,21.3
2018-06-05T03:03:36.284Z,21.3
2018-06-05T03:04:37.602Z,21.4
2018-06-05T03:05:38.901Z,21.4
2018-06-05T03:06:40.237Z,21.4
2018-06-05T03:07:41.587Z,21.4
2018-06-05T03:08:43.182Z,21.4
2018-06-05T03:09:44.523Z,21.4
2018-06-05T03:10:45.831Z,21.4
2018-06-05T03:11:47.145Z,21.4
2018-06-05T03:12:48.463Z,21.4
2018-06-05T03:13:50.653Z,21.4
2018-06-05T03:14:52.016Z,21.4
2018-06-05T03:15:53.317Z,21.4
2018-06-05T03:16:54.688Z,21.4
2018-06-05T03:17:56.045Z,21.4
2018-06-05T03:18:57.399Z,21.4
2018-06-05T03:19:58.721Z,21.4
2018-06-05T03:21:00.066Z,21.4
2018-06-05T03:22:01.480Z,21.4
2018-06-05T03:23:02.849Z,21.4
2018-06-05T03:24:07.077Z,21.4
2018-06-05T03:25:11.412Z,21.4
2018-06-05T03:26:13.002Z,21.3
2018-06-05T03:27:22.602Z,21.3
2018-06-05T03:28:23.953Z,21.3
2018-06-05T03:29:25.346Z,21.3
2018-06-05T03:30:26.668Z,21.4
2018-06-05T03:31:35.533Z,21.3
2018-06-05T03:32:37.084Z,21.4
2018-06-05T03:33:38.447Z,21.3
2018-06-05T03:34:40.027Z,21.3
2018-06-05T03:35:41.324Z,21.3
2018-06-05T03:36:42.655Z,21.3
2018-06-05T03:37:43.982Z,21.4
2018-06-05T03:38:45.312Z,21.4
2018-06-05T03:39:46.837Z,21.3
2018-06-05T03:40:48.188Z,21.3
2018-06-05T03:41:49.422Z,21.3
2018-06-05T03:42:50.741Z,21.3
2018-06-05T03:43:52.142Z,21.3
2018-06-05T03:44:53.505Z,21.3
2018-06-05T03:45:55.180Z,21.3
2018-06-05T03:46:56.502Z,21.3
2018-06-05T03:47:57.817Z,21.3
2018-06-05T03:48:59.395Z,21.3
2018-06-05T03:50:00.806Z,21.3
2018-06-05T03:51:02.133Z,21.3
2018-06-05T03:52:03.453Z,21.3
2018-06-05T03:53:04.762Z,21.3
2018-06-05T03:54:06.427Z,21.3
2018-06-05T03:55:08.076Z,21.3
2018-06-05T03:56:09.632Z,21.3
2018-06-05T03:57:11.014Z,21.3
2018-06-05T03:58:12.672Z,21.2
2018-06-05T03:59:14.046Z,21.2
2018-06-05T04:00:15.637Z,21.3
2018-06-05T04:01:21.549Z,21.3
2018-06-05T04:02:23.179Z,21.2
2018-06-05T04:03:24.691Z,21.3
2018-06-05T04:04:26.084Z,21.3
2018-06-05T04:05:27.433Z,21.3
2018-06-05T04:06:28.731Z,21.3
2018-06-05T04:07:34.315Z,21.3
2018-06-05T04:08:35.702Z,21.3
2018-06-05T04:09:37.048Z,21.3
2018-06-05T04:10:38.413Z,21.3
2018-06-05T04:11:39.796Z,21.2
2018-06-05T04:12:41.103Z,21.3
2018-06-05T04:13:42.477Z,21.3
2018-06-05T04:14:45.340Z,21.2
2018-06-05T04:15:46.748Z,21.2
2018-06-05T04:16:48.116Z,21.2
2018-06-05T04:17:49.662Z,21.2
2018-06-05T04:18:52.929Z,21.2
2018-06-05T04:19:54.232Z,21.2
2018-06-05T04:20:55.579Z,21.2
2018-06-05T04:21:57.019Z,21.2
2018-06-05T04:22:58.350Z,21.2
2018-06-05T04:23:59.913Z,21.2
2018-06-05T04:25:02.598Z,21.2
2018-06-05T04:26:04.306Z,21.2
2018-06-05T04:27:05.703Z,21.2
2018-06-05T04:28:07.349Z,21.2
2018-06-05T04:29:09.309Z,21.2
2018-06-05T04:30:10.635Z,21.2
2018-06-05T04:31:12.032Z,21.2
2018-06-05T04:32:13.385Z,21.2
2018-06-05T04:33:14.747Z,21.2
2018-06-05T04:34:17.188Z,21.1
2018-06-05T04:35:18.780Z,21.2
2018-06-05T04:36:20.618Z,21.1
2018-06-05T04:37:23.522Z,21.2
2018-06-05T04:38:24.898Z,21.1
2018-06-05T04:39:26.233Z,21.2
2018-06-05T04:40:27.784Z,21.2
2018-06-05T04:41:29.168Z,21.2
2018-06-05T04:42:33.663Z,21.2
2018-06-05T04:43:35.013Z,21.2
2018-06-05T04:44:36.334Z,21.2
2018-06-05T04:45:37.757Z,21.2
2018-06-05T04:46:41.707Z,21.2
2018-06-05T04:47:43.437Z,21.2
2018-06-05T04:48:46.788Z,21.2
2018-06-05T04:49:48.145Z,21.2
2018-06-05T04:50:50.590Z,21.2
2018-06-05T04:51:52.083Z,21.2
2018-06-05T04:52:53.510Z,21.1
2018-06-05T04:53:54.931Z,21
2018-06-05T04:54:56.293Z,21
2018-06-05T04:55:57.769Z,21.1
2018-06-05T04:56:59.251Z,21
2018-06-05T04:58:00.654Z,21
2018-06-05T04:59:02.273Z,20.9
2018-06-05T05:00:05.592Z,20.8
2018-06-05T05:01:06.988Z,20.8
2018-06-05T05:02:08.338Z,20.7
2018-06-05T05:03:12.690Z,20.8
2018-06-05T05:04:14.115Z,20.7
2018-06-05T05:05:15.464Z,20.7
2018-06-05T05:06:16.768Z,20.6
2018-06-05T05:07:18.347Z,20.7
2018-06-05T05:08:19.731Z,20.8
2018-06-05T05:09:21.085Z,20.6
2018-06-05T05:10:22.416Z,20.8
2018-06-05T05:11:23.754Z,20.9
2018-06-05T05:12:28.083Z,20.8
2018-06-05T05:13:29.551Z,20.9
2018-06-05T05:14:33.709Z,21
2018-06-05T05:15:36.266Z,21
2018-06-05T05:16:37.838Z,21
2018-06-05T05:17:39.250Z,21
2018-06-05T05:18:40.697Z,21
2018-06-05T05:19:42.093Z,20.8
2018-06-05T05:20:43.434Z,20.8
2018-06-05T05:21:44.855Z,20.9
2018-06-05T05:22:46.285Z,20.8
2018-06-05T05:23:47.629Z,20.8
2018-06-05T05:24:53.025Z,20.7
2018-06-05T05:26:03.694Z,20.9
2018-06-05T05:27:05.850Z,20.9
2018-06-05T05:28:07.770Z,20.9
2018-06-05T05:29:09.376Z,20.9
2018-06-05T05:30:10.713Z,20.9
2018-06-05T05:31:12.039Z,21
2018-06-05T05:32:13.461Z,20.9
2018-06-05T05:33:14.886Z,20.9
2018-06-05T05:34:16.218Z,20.9
2018-06-05T05:35:17.906Z,20.9
2018-06-05T05:36:19.353Z,20.9
2018-06-05T05:37:20.920Z,20.7
2018-06-05T05:38:22.400Z,20.9
2018-06-05T05:39:23.763Z,20.8
2018-06-05T05:40:25.168Z,20.8
2018-06-05T05:41:26.525Z,20.7
2018-06-05T05:42:27.963Z,20.6
2018-06-05T05:43:29.426Z,20.6
2018-06-05T05:44:31.998Z,20.6
2018-06-05T05:45:33.548Z,20.6
2018-06-05T05:46:35.003Z,20.6
2018-06-05T05:47:36.465Z,20.7
2018-06-05T05:48:37.888Z,20.8
2018-06-05T05:49:39.274Z,20.6
2018-06-05T05:50:40.600Z,20.6
2018-06-05T05:51:41.942Z,20.7
2018-06-05T05:52:43.400Z,20.5
2018-06-05T05:53:45.020Z,20.6
2018-06-05T05:54:47.421Z,20.5
2018-06-05T05:55:48.754Z,20.5
2018-06-05T05:56:50.180Z,20.6
2018-06-05T05:57:51.644Z,20.7
2018-06-05T05:58:53.277Z,20.3
2018-06-05T05:59:54.695Z,20.5
2018-06-05T06:00:57.063Z,20.5
2018-06-05T06:01:58.411Z,20.5
2018-06-05T06:02:59.786Z,20.5
2018-06-05T06:04:01.217Z,20.6
2018-06-05T06:05:06.752Z,20.4
2018-06-05T06:06:08.313Z,20.5
2018-06-05T06:07:09.692Z,20.5
2018-06-05T06:08:11.150Z,20.3
2018-06-05T06:09:12.584Z,20.3
2018-06-05T06:10:13.987Z,20.4
2018-06-05T06:11:15.593Z,20.5
2018-06-05T06:12:16.941Z,20.4
2018-06-05T06:13:20.736Z,20.2
2018-06-05T06:14:22.226Z,20.5
2018-06-05T06:15:25.266Z,20.6
2018-06-05T06:16:27.539Z,20.7
2018-06-05T06:17:33.541Z,20.5
2018-06-05T06:18:38.205Z,20.8
2018-06-05T06:19:40.696Z,20.8
2018-06-05T06:20:42.131Z,20.7
2018-06-05T06:21:43.520Z,20.9
2018-06-05T06:22:48.359Z,20.9
2018-06-05T06:23:49.954Z,20.9
2018-06-05T06:24:51.542Z,21
2018-06-05T06:25:53.352Z,21.1
2018-06-05T06:26:54.740Z,21.1
2018-06-05T06:28:02.939Z,21.1
2018-06-05T06:29:04.496Z,21.2
2018-06-05T06:30:05.895Z,21.2
2018-06-05T06:31:07.274Z,21.3
2018-06-05T06:32:10.535Z,21.2
2018-06-05T06:33:11.989Z,21.2
2018-06-05T06:34:13.493Z,21.2
2018-06-05T06:35:14.955Z,21.2
2018-06-05T06:36:16.609Z,21
2018-06-05T06:37:18.316Z,21
2018-06-05T06:38:21.294Z,20.9
2018-06-05T06:39:26.090Z,20.9
2018-06-05T06:40:27.529Z,21
2018-06-05T06:41:45.697Z,21.2
2018-06-05T06:42:47.584Z,21.2
2018-06-05T06:43:49.156Z,21.2
2018-06-05T06:44:50.538Z,21.2
2018-06-05T06:45:55.006Z,21.2
2018-06-05T06:46:56.380Z,21.4
2018-06-05T06:47:57.819Z,21.2
2018-06-05T06:48:59.674Z,21.2
2018-06-05T06:50:01.004Z,21.3
2018-06-05T06:51:02.473Z,21.4
2018-06-05T06:52:03.913Z,21.3
2018-06-05T06:53:05.294Z,21.4
2018-06-05T06:54:06.787Z,21.5
2018-06-05T06:55:10.525Z,21.5
2018-06-05T06:56:11.977Z,21.5
2018-06-05T06:57:13.436Z,21.3
2018-06-05T06:58:14.789Z,21.4
2018-06-05T06:59:19.261Z,21.4
2018-06-05T07:00:21.936Z,21.4
2018-06-05T07:01:24.432Z,21.4
2018-06-05T07:02:30.665Z,21.5
2018-06-05T07:03:32.243Z,21.5
2018-06-05T07:04:33.767Z,21.5
2018-06-05T07:05:36.282Z,21.5
2018-06-05T07:06:38.194Z,21.5
2018-06-05T07:07:42.410Z,21.4
2018-06-05T07:08:47.655Z,21.3
2018-06-05T07:09:49.243Z,21.2
2018-06-05T07:10:50.930Z,21.5
2018-06-05T07:12:03.101Z,21.4
2018-06-05T07:13:04.523Z,21.5
2018-06-05T07:14:06.059Z,21.4
2018-06-05T07:15:16.536Z,21.4
2018-06-05T07:16:23.754Z,21.5
2018-06-05T07:17:31.195Z,21.6
2018-06-05T07:18:35.398Z,21.4
2018-06-05T07:19:37.088Z,21.5
2018-06-05T07:20:40.277Z,21.6
2018-06-05T07:21:41.671Z,21.7
2018-06-05T07:22:43.088Z,21.6
2018-06-05T07:23:46.398Z,21.6
2018-06-05T07:24:49.851Z,21.6
2018-06-05T07:25:54.378Z,21.7
2018-06-05T07:26:55.888Z,21.7
2018-06-05T07:27:57.404Z,21.6
2018-06-05T07:28:58.885Z,21.6
2018-06-05T07:30:00.450Z,21.7
2018-06-05T07:31:01.966Z,21.6
2018-06-05T07:32:03.422Z,21.6
2018-06-05T07:33:04.944Z,21.7
2018-06-05T07:34:06.368Z,21.7
2018-06-05T07:35:10.599Z,21.6
2018-06-05T07:36:12.007Z,21.8
2018-06-05T07:37:15.889Z,21.8
2018-06-05T07:38:17.444Z,21.8
2018-06-05T07:39:18.944Z,21.9
2018-06-05T07:40:20.321Z,21.8
2018-06-05T07:41:21.718Z,21.8
2018-06-05T07:42:23.341Z,21.8
2018-06-05T07:43:25.928Z,21.9
2018-06-05T07:44:27.382Z,21.9
2018-06-05T07:45:34.336Z,21.9
2018-06-05T07:46:38.014Z,21.8
2018-06-05T07:47:42.322Z,21.9
2018-06-05T07:48:43.807Z,21.8
2018-06-05T07:49:45.211Z,21.7
2018-06-05T07:50:46.581Z,21.8
2018-06-05T07:51:48.010Z,21.9
2018-06-05T07:52:49.393Z,21.9
2018-06-05T07:53:50.810Z,22
2018-06-05T07:54:54.366Z,21.9
2018-06-05T07:55:55.750Z,22
2018-06-05T07:58:12.921Z,22
2018-06-05T07:59:14.341Z,22
2018-06-05T08:00:15.789Z,22
2018-06-05T08:01:25.327Z,22
2018-06-05T08:02:27.942Z,22.1
2018-06-05T08:03:29.341Z,22
2018-06-05T08:04:30.997Z,22.1
2018-06-05T08:05:32.373Z,22.1
2018-06-05T08:06:34.025Z,22
2018-06-05T08:07:36.709Z,22
2018-06-05T08:08:38.129Z,22.1
2018-06-05T08:09:39.571Z,22
2018-06-05T08:10:41.001Z,22
2018-06-05T08:11:44.696Z,22
2018-06-05T08:12:46.068Z,22.1
2018-06-05T08:13:47.469Z,22.1
2018-06-05T08:14:48.864Z,22.1
2018-06-05T08:15:50.168Z,22.1
2018-06-05T08:16:52.227Z,22.2
2018-06-05T08:17:54.038Z,22.1
2018-06-05T08:19:00.551Z,22.1
2018-06-05T08:20:05.687Z,22.2
2018-06-05T08:21:07.544Z,22.1
2018-06-05T08:22:09.018Z,22.1
2018-06-05T08:23:10.432Z,22.2
2018-06-05T08:24:11.868Z,22.2
2018-06-05T08:25:13.307Z,22.3
2018-06-05T08:26:16.276Z,22.2
2018-06-05T08:27:20.943Z,22.3
2018-06-05T08:28:24.377Z,22.3
2018-06-05T08:29:25.833Z,22.4
2018-06-05T08:30:30.645Z,22.4
2018-06-05T08:31:37.478Z,22.4
2018-06-05T08:32:41.311Z,22.4
2018-06-05T08:33:46.530Z,22.4
2018-06-05T08:34:47.895Z,22.4
2018-06-05T08:35:49.575Z,22.4
2018-06-05T08:36:53.656Z,22.5
2018-06-05T08:37:57.204Z,22.5
2018-06-05T08:38:58.661Z,22.5
2018-06-05T08:40:07.684Z,22.5
2018-06-05T08:41:10.307Z,22.5
2018-06-05T08:42:12.179Z,22.5
2018-06-05T08:43:13.612Z,22.5
2018-06-05T08:44:15.354Z,22.4
2018-06-05T08:45:19.712Z,22.5
2018-06-05T08:46:23.369Z,22.6
2018-06-05T08:47:24.933Z,22.6
2018-06-05T08:48:26.338Z,22.6
2018-06-05T08:49:27.942Z,22.6
2018-06-05T08:50:29.285Z,22.6
2018-06-05T08:51:32.437Z,22.6
2018-06-05T08:52:34.329Z,22.6
2018-06-05T08:53:37.241Z,22.6
2018-06-05T08:54:43.238Z,22.7
2018-06-05T08:55:44.848Z,22.6
2018-06-05T08:56:50.207Z,22.7
2018-06-05T08:57:51.940Z,22.7
2018-06-05T08:58:53.522Z,22.7
2018-06-05T08:59:58.014Z,22.7
2018-06-05T09:01:04.476Z,22.8
2018-06-05T09:02:06.755Z,22.8
2018-06-05T09:03:08.360Z,22.8
2018-06-05T09:04:10.192Z,22.8
2018-06-05T09:05:11.741Z,22.8
2018-06-05T09:06:13.300Z,22.8
2018-06-05T09:07:20.509Z,22.8
2018-06-05T09:08:21.949Z,22.9
2018-06-05T09:09:23.429Z,22.9
2018-06-05T09:10:24.883Z,22.9
2018-06-05T09:11:28.227Z,22.9
2018-06-05T09:12:29.988Z,22.9
2018-06-05T09:13:31.475Z,22.8
2018-06-05T09:14:32.924Z,22.9
2018-06-05T09:15:34.334Z,22.9
2018-06-05T09:16:35.752Z,22.9
2018-06-05T09:17:41.154Z,22.9
2018-06-05T09:18:42.683Z,23
2018-06-05T09:19:44.048Z,23
2018-06-05T09:20:46.886Z,23
2018-06-05T09:21:50.975Z,23
2018-06-05T09:23:01.623Z,22.9
2018-06-05T09:24:05.404Z,23
2018-06-05T09:25:09.770Z,23
2018-06-05T09:26:13.291Z,23.1
2018-06-05T09:27:14.664Z,23.1
2018-06-05T09:28:16.115Z,23.1
2018-06-05T09:29:17.956Z,23.1
2018-06-05T09:30:19.302Z,23.1
2018-06-05T09:31:20.906Z,23.2
2018-06-05T09:32:22.390Z,23.2
2018-06-05T09:33:30.373Z,23.2
2018-06-05T09:34:31.896Z,23.2
2018-06-05T09:35:33.269Z,23.2
2018-06-05T09:36:34.733Z,23.2
2018-06-05T09:37:36.132Z,23.2
2018-06-05T09:38:37.673Z,23.3
2018-06-05T09:39:39.246Z,23.3
2018-06-05T09:40:40.712Z,23.3
2018-06-05T09:41:43.028Z,23.3
2018-06-05T09:42:47.214Z,23.3
2018-06-05T09:43:48.582Z,23.3
2018-06-05T09:44:49.974Z,23.3
2018-06-05T09:45:51.348Z,23.3
2018-06-05T09:47:00.258Z,23.3
2018-06-05T09:48:04.088Z,23.3
2018-06-05T09:49:12.458Z,23.4
2018-06-05T09:50:14.131Z,23.4
2018-06-05T09:51:15.830Z,23.4
2018-06-05T09:52:17.357Z,23.5
2018-06-05T09:53:18.684Z,23.4
2018-06-05T09:54:26.106Z,23.4
2018-06-05T09:55:27.560Z,23.4
2018-06-05T09:56:29.001Z,23.5
2018-06-05T09:57:30.627Z,23.3
2018-06-05T09:58:32.057Z,23.5
2018-06-05T09:59:33.443Z,23.5
2018-06-05T10:00:34.926Z,23.5
2018-06-05T10:01:36.266Z,23.6
2018-06-05T10:02:48.350Z,23.6
2018-06-05T10:03:52.853Z,23.6
2018-06-05T10:04:57.438Z,23.5
2018-06-05T10:05:58.937Z,23.6
2018-06-05T10:07:00.737Z,23.6
2018-06-05T10:08:02.479Z,23.6
2018-06-05T10:09:06.845Z,23.7
2018-06-05T10:10:12.705Z,23.7
2018-06-05T10:11:14.506Z,23.7
2018-06-05T10:12:18.158Z,23.7
2018-06-05T10:13:19.971Z,23.7
2018-06-05T10:14:21.534Z,23.7
2018-06-05T10:15:23.186Z,23.8
2018-06-05T10:16:27.414Z,23.8
2018-06-05T10:17:31.475Z,23.8
2018-06-05T10:18:32.832Z,23.7
2018-06-05T10:19:39.220Z,23.8
2018-06-05T10:20:40.777Z,23.9
2018-06-05T10:21:47.190Z,23.9
2018-06-05T10:22:51.303Z,23.9
2018-06-05T10:23:54.300Z,23.9
2018-06-05T10:24:58.692Z,23.9
2018-06-05T10:26:06.700Z,23.9
2018-06-05T10:27:13.244Z,24
2018-06-05T10:28:15.129Z,24
2018-06-05T10:29:16.732Z,24
2018-06-05T10:30:18.153Z,24
2018-06-05T10:31:21.079Z,24
2018-06-05T10:32:23.757Z,24.1
2018-06-05T10:33:25.437Z,24.1
2018-06-05T10:34:29.081Z,24.1
2018-06-05T10:35:30.705Z,24.1
2018-06-05T10:36:35.679Z,24.1
2018-06-05T10:37:37.339Z,24.1
2018-06-05T10:38:42.454Z,24.2
2018-06-05T10:41:05.861Z,24.2
2018-06-05T10:42:07.712Z,24.2
2018-06-05T10:43:12.735Z,24.2
2018-06-05T10:44:14.719Z,24.2
2018-06-05T10:45:20.263Z,24.2
2018-06-05T10:46:21.960Z,24.1
2018-06-05T10:47:29.601Z,24.4
2018-06-05T10:48:30.989Z,24.4
2018-06-05T10:49:32.404Z,24.4
2018-06-05T10:50:34.228Z,24.5
2018-06-05T10:51:38.949Z,24.5
2018-06-05T10:52:40.810Z,24.5
2018-06-05T10:53:48.359Z,24.4
2018-06-05T10:56:14.711Z,24.7
2018-06-05T10:57:25.304Z,24.7
2018-06-05T10:58:27.180Z,24.7
2018-06-05T10:59:29.090Z,24.7
2018-06-05T11:00:31.863Z,24.6
2018-06-05T11:01:34.301Z,24.6
2018-06-05T11:02:36.636Z,24.6
2018-06-05T11:03:38.353Z,24.6
2018-06-05T11:04:40.173Z,24.7
2018-06-05T11:05:41.804Z,24.6
2018-06-05T11:06:43.418Z,24.6
2018-06-05T11:07:46.291Z,24.6
2018-06-05T11:08:50.104Z,24.7
2018-06-05T11:10:04.606Z,24.7
2018-06-05T11:11:08.696Z,24.7
2018-06-05T11:12:12.566Z,24.8
2018-06-05T11:13:14.129Z,24.8
2018-06-05T11:14:15.679Z,24.8
2018-06-05T11:15:17.125Z,24.9
2018-06-05T11:16:24.079Z,24.9
2018-06-05T11:17:26.071Z,24.9
2018-06-05T11:18:27.604Z,24.9
2018-06-05T11:19:35.733Z,24.9
2018-06-05T11:20:37.382Z,24.9
2018-06-05T11:21:40.005Z,24.9
2018-06-05T11:22:41.594Z,25
2018-06-05T11:23:45.443Z,24.9
2018-06-05T11:25:56.171Z,25
2018-06-05T11:27:03.562Z,25
2018-06-05T11:28:06.053Z,25
2018-06-05T11:29:13.363Z,25.1
2018-06-05T11:30:20.343Z,25.1
2018-06-05T11:31:21.802Z,25
2018-06-05T11:32:23.415Z,25.1
2018-06-05T11:33:32.570Z,25.1
2018-06-05T11:34:36.920Z,25.2
2018-06-05T11:35:38.367Z,25.2
2018-06-05T11:36:43.701Z,25.2
2018-06-05T11:37:50.453Z,25.2
2018-06-05T11:38:52.025Z,25.2
2018-06-05T11:39:53.392Z,25.3
2018-06-05T11:40:55.101Z,25.3
2018-06-05T11:41:58.500Z,25.3
2018-06-05T11:42:59.820Z,25.2
2018-06-05T11:44:02.652Z,25.2
2018-06-05T11:45:04.153Z,25.4
2018-06-05T11:46:07.178Z,25.4
2018-06-05T11:47:09.138Z,25.4
2018-06-05T11:48:13.345Z,25.4
2018-06-05T11:49:14.895Z,25.5
2018-06-05T11:50:16.372Z,25.5
2018-06-05T11:51:26.269Z,25.5
2018-06-05T11:52:30.636Z,25.5
2018-06-05T11:53:37.595Z,25.5
2018-06-05T11:54:49.056Z,25.5
2018-06-05T11:55:50.663Z,25.5
2018-06-05T11:56:52.100Z,25.5
2018-06-05T11:57:57.571Z,25.5
2018-06-05T11:58:58.957Z,25.5
2018-06-05T12:00:00.413Z,25.6
2018-06-05T12:01:02.106Z,25.6
2018-06-05T12:02:06.610Z,25.6
2018-06-05T12:03:10.735Z,25.6
2018-06-05T12:04:23.359Z,25.6
2018-06-05T12:05:25.244Z,25.6
2018-06-05T12:06:26.774Z,25.6
2018-06-05T12:07:52.120Z,25.6
2018-06-05T12:08:54.427Z,25.6
2018-06-05T12:09:55.876Z,25.6
2018-06-05T12:10:59.913Z,25.6
2018-06-05T12:12:03.402Z,25.6
2018-06-05T12:13:05.161Z,25.6
2018-06-05T12:14:07.028Z,25.6
2018-06-05T12:15:11.349Z,25.6
2018-06-05T12:16:19.657Z,25.7
2018-06-05T12:17:22.488Z,25.7
2018-06-05T12:18:25.199Z,25.6
2018-06-05T12:19:31.141Z,25.6
2018-06-05T12:20:32.629Z,25.7
2018-06-05T12:21:49.077Z,25.7
2018-06-05T12:22:50.493Z,25.6
2018-06-05T12:23:54.423Z,25.7
2018-06-05T12:24:55.776Z,25.7
2018-06-05T12:25:57.089Z,25.8
2018-06-05T12:27:06.342Z,25.9
2018-06-05T12:28:10.453Z,25.9
2018-06-05T12:29:12.209Z,25.9
2018-06-05T12:30:13.733Z,25.9
2018-06-05T12:31:15.319Z,25.9
2018-06-05T12:32:16.720Z,25.9
2018-06-05T12:33:21.602Z,26
2018-06-05T12:34:26.703Z,26.2
2018-06-05T12:35:31.249Z,26.1
2018-06-05T12:36:37.546Z,26.1
2018-06-05T12:37:41.285Z,26
2018-06-05T12:38:46.999Z,25.9
2018-06-05T12:39:48.599Z,25.9
2018-06-05T12:40:55.541Z,25.8
2018-06-05T12:41:59.097Z,25.8
2018-06-05T12:43:01.771Z,26
2018-06-05T12:44:03.161Z,26
2018-06-05T12:45:08.393Z,25.9
2018-06-05T12:46:11.255Z,25.9
2018-06-05T12:47:12.669Z,25.9
2018-06-05T12:48:20.778Z,25.9
2018-06-05T12:49:23.662Z,25.9
2018-06-05T12:50:25.077Z,25.9
2018-06-05T12:51:36.102Z,25.9
2018-06-05T12:52:39.330Z,25.8
2018-06-05T12:53:42.146Z,25.9
2018-06-05T12:54:44.094Z,25.9
2018-06-05T12:55:48.421Z,25.9
2018-06-05T12:56:49.787Z,25.7
2018-06-05T12:57:51.730Z,25.8
2018-06-05T12:58:53.289Z,25.8
2018-06-05T12:59:54.882Z,25.9
2018-06-05T13:00:56.556Z,25.8
2018-06-05T13:01:57.896Z,26
2018-06-05T13:02:59.339Z,26
2018-06-05T13:04:01.702Z,25.9
2018-06-05T13:05:07.749Z,25.9
2018-06-05T13:06:13.930Z,26
2018-06-05T13:07:15.465Z,26
2018-06-05T13:08:19.952Z,25.9
2018-06-05T13:09:21.369Z,25.9
2018-06-05T13:10:25.375Z,25.9
2018-06-05T13:11:31.183Z,25.9
2018-06-05T13:12:32.617Z,25.8
2018-06-05T13:13:34.054Z,25.8
2018-06-05T13:14:35.719Z,25.8
2018-06-05T13:15:37.147Z,25.9
2018-06-05T13:16:39.584Z,25.9
2018-06-05T13:17:48.208Z,25.8
2018-06-05T13:18:50.132Z,25.9
2018-06-05T13:19:51.490Z,25.9
2018-06-05T13:20:52.896Z,25.9
2018-06-05T13:21:59.143Z,25.9
2018-06-05T13:23:06.440Z,25.9
2018-06-05T13:24:07.989Z,25.8
2018-06-05T13:25:09.523Z,25.8
2018-06-05T13:26:10.954Z,25.8
2018-06-05T13:27:12.409Z,25.8
2018-06-05T13:28:13.829Z,25.8
2018-06-05T13:29:15.230Z,25.8
2018-06-05T13:30:24.269Z,25.8
2018-06-05T13:31:26.780Z,25.8
2018-06-05T13:32:28.593Z,25.9
2018-06-05T13:33:30.118Z,25.9
2018-06-05T13:34:31.621Z,25.8
2018-06-05T13:35:33.969Z,25.8
2018-06-05T13:36:35.356Z,25.8
2018-06-05T13:37:39.719Z,25.8
2018-06-05T13:38:46.673Z,25.9
2018-06-05T13:39:50.100Z,25.9
2018-06-05T13:40:53.383Z,26
2018-06-05T13:41:55.181Z,25.9
2018-06-05T13:42:56.601Z,25.9
2018-06-05T13:43:58.031Z,25.9
2018-06-05T13:45:00.806Z,25.9
2018-06-05T13:46:11.643Z,25.9
2018-06-05T13:47:29.109Z,25.9
2018-06-05T13:48:33.328Z,25.8
2018-06-05T13:49:35.185Z,25.8
2018-06-05T13:50:36.762Z,25.8
2018-06-05T13:51:38.329Z,25.9
2018-06-05T13:52:41.993Z,25.9
2018-06-05T13:53:48.071Z,25.9
2018-06-05T13:54:52.825Z,25.8
2018-06-05T13:55:54.343Z,25.8
2018-06-05T13:56:55.918Z,25.8
2018-06-05T13:58:19.778Z,25.9
2018-06-05T13:59:27.934Z,25.9
2018-06-05T14:00:35.753Z,25.9
2018-06-05T14:01:42.370Z,25.9
2018-06-05T14:02:43.793Z,25.9
2018-06-05T14:03:45.654Z,25.9